createdAt,value
2023-04-16T00:00:48.543Z,8.56
2023-04-16T00:03:31.822Z,8.56
2023-04-16T00:06:00.727Z,8.54
2023-04-16T00:08:28.639Z,8.51
2023-04-16T00:10:56.627Z,8.50
2023-04-16T00:13:26.251Z,8.48
2023-04-16T00:15:54.402Z,8.43
2023-04-16T00:18:22.431Z,8.39
2023-04-16T00:20:50.904Z,8.38
2023-04-16T00:23:19.000Z,8.34
2023-04-16T00:25:47.049Z,8.30
2023-04-16T00:28:14.958Z,8.26
2023-04-16T00:30:42.899Z,8.22
2023-04-16T00:33:10.967Z,8.22
2023-04-16T00:35:38.945Z,8.23
2023-04-16T00:38:06.942Z,8.20
2023-04-16T00:40:34.924Z,8.18
2023-04-16T00:43:02.896Z,8.19
2023-04-16T00:45:30.934Z,8.17
2023-04-16T00:48:00.838Z,8.18
2023-04-16T00:50:29.637Z,8.12
2023-04-16T00:52:58.345Z,8.06
2023-04-16T00:55:27.641Z,8.02
2023-04-16T00:57:55.687Z,7.99
2023-04-16T01:00:23.878Z,7.97
2023-04-16T01:02:53.737Z,7.95
2023-04-16T01:05:22.279Z,7.94
2023-04-16T01:07:51.347Z,7.92
2023-04-16T01:10:19.369Z,7.92
2023-04-16T01:12:47.323Z,7.93
2023-04-16T01:15:15.364Z,7.91
2023-04-16T01:17:46.284Z,7.88
2023-04-16T01:20:15.319Z,7.88
2023-04-16T01:22:43.503Z,7.85
2023-04-16T01:25:15.836Z,7.85
2023-04-16T01:27:43.878Z,7.84
2023-04-16T01:30:12.055Z,7.82
2023-04-16T01:32:51.696Z,7.79
2023-04-16T01:35:19.786Z,7.77
2023-04-16T01:37:50.314Z,7.78
2023-04-16T01:40:18.740Z,7.80
2023-04-16T01:42:46.807Z,7.80
2023-04-16T01:45:14.835Z,7.81
2023-04-16T01:47:42.952Z,7.82
2023-04-16T01:50:11.685Z,7.84
2023-04-16T01:52:39.874Z,7.84
2023-04-16T01:55:08.231Z,7.85
2023-04-16T01:57:36.291Z,7.87
2023-04-16T02:00:06.407Z,7.88
2023-04-16T02:02:35.570Z,7.89
2023-04-16T02:05:04.026Z,7.88
2023-04-16T02:07:32.118Z,7.86
2023-04-16T02:10:00.057Z,7.87
2023-04-16T02:12:29.920Z,7.89
2023-04-16T02:14:58.262Z,7.88
2023-04-16T02:17:28.141Z,7.89
2023-04-16T02:20:09.551Z,7.92
2023-04-16T02:22:40.995Z,7.96
2023-04-16T02:25:09.249Z,7.99
2023-04-16T02:27:37.547Z,7.98
2023-04-16T02:30:18.112Z,7.93
2023-04-16T02:32:46.198Z,7.87
2023-04-16T02:35:14.829Z,7.86
2023-04-16T02:37:43.002Z,7.83
2023-04-16T02:40:11.710Z,7.81
2023-04-16T02:42:39.757Z,7.79
2023-04-16T02:45:09.269Z,7.76
2023-04-16T02:47:37.449Z,7.74
2023-04-16T02:50:06.400Z,7.72
2023-04-16T02:52:34.480Z,7.73
2023-04-16T02:55:02.792Z,7.70
2023-04-16T02:57:30.848Z,7.70
2023-04-16T02:59:59.382Z,7.69
2023-04-16T03:02:27.581Z,7.65
2023-04-16T03:04:56.047Z,7.65
2023-04-16T03:07:24.524Z,7.70
2023-04-16T03:09:52.399Z,7.71
2023-04-16T03:12:20.457Z,7.70
2023-04-16T03:14:51.574Z,7.67
2023-04-16T03:17:19.473Z,7.66
2023-04-16T03:19:47.661Z,7.62
2023-04-16T03:22:16.051Z,7.53
2023-04-16T03:24:44.016Z,7.48
2023-04-16T03:27:12.103Z,7.40
2023-04-16T03:29:40.171Z,7.31
2023-04-16T03:32:08.149Z,7.26
2023-04-16T03:34:37.112Z,7.14
2023-04-16T03:37:06.332Z,7.08
2023-04-16T03:39:34.860Z,7.06
2023-04-16T03:42:03.802Z,7.04
2023-04-16T03:44:31.693Z,7.02
2023-04-16T03:46:59.618Z,6.98
2023-04-16T03:49:27.863Z,6.94
2023-04-16T03:51:55.930Z,6.92
2023-04-16T03:54:23.999Z,6.90
2023-04-16T03:56:57.538Z,6.92
2023-04-16T03:59:25.835Z,6.95
2023-04-16T04:01:54.086Z,6.95
2023-04-16T04:04:22.369Z,6.92
2023-04-16T04:06:50.495Z,6.91
2023-04-16T04:09:18.609Z,6.90
2023-04-16T04:11:47.695Z,6.88
2023-04-16T04:14:15.830Z,6.87
2023-04-16T04:16:43.925Z,6.89
2023-04-16T04:19:12.245Z,6.90
2023-04-16T04:21:40.709Z,6.97
2023-04-16T04:24:10.493Z,7.01
2023-04-16T04:26:38.517Z,7.05
2023-04-16T04:29:06.658Z,7.09
2023-04-16T04:31:36.013Z,7.11
2023-04-16T04:34:04.297Z,7.14
2023-04-16T04:36:32.455Z,7.16
2023-04-16T04:39:02.045Z,7.18
2023-04-16T04:41:30.421Z,7.23
2023-04-16T04:43:58.378Z,7.32
2023-04-16T04:46:26.609Z,7.38
2023-04-16T04:48:54.664Z,7.38
2023-04-16T04:51:22.640Z,7.45
2023-04-16T04:53:50.560Z,7.52
2023-04-16T04:56:18.573Z,7.59
2023-04-16T04:58:46.636Z,7.66
2023-04-16T05:01:14.636Z,7.82
2023-04-16T05:03:42.757Z,7.96
2023-04-16T05:06:10.829Z,8.09
2023-04-16T05:08:38.818Z,8.19
2023-04-16T05:11:06.705Z,8.29
2023-04-16T05:13:34.658Z,8.36
2023-04-16T05:16:02.624Z,8.46
2023-04-16T05:18:31.221Z,8.55
2023-04-16T05:20:59.286Z,8.63
2023-04-16T05:23:27.274Z,8.71
2023-04-16T05:25:55.419Z,8.77
2023-04-16T05:28:23.482Z,8.83
2023-04-16T05:30:51.754Z,8.90
2023-04-16T05:33:19.801Z,8.97
2023-04-16T05:35:47.819Z,9.04
2023-04-16T05:38:15.884Z,9.05
2023-04-16T05:40:43.762Z,9.06
2023-04-16T05:43:11.736Z,9.07
2023-04-16T05:45:41.394Z,9.13
2023-04-16T05:48:10.170Z,9.24
2023-04-16T05:50:38.742Z,9.31
2023-04-16T05:53:08.572Z,9.38
2023-04-16T05:55:39.471Z,9.43
2023-04-16T05:58:07.490Z,9.51
2023-04-16T06:00:36.069Z,9.58
2023-04-16T06:03:04.624Z,9.69
2023-04-16T06:05:32.831Z,9.78
2023-04-16T06:08:01.170Z,9.86
2023-04-16T06:10:29.476Z,9.96
2023-04-16T06:12:57.404Z,10.13
2023-04-16T06:15:25.327Z,10.29
2023-04-16T06:17:54.924Z,10.46
2023-04-16T06:20:23.000Z,10.65
2023-04-16T06:22:51.096Z,10.91
2023-04-16T06:25:19.058Z,11.10
2023-04-16T06:27:47.080Z,11.24
2023-04-16T06:30:16.407Z,11.34
2023-04-16T06:32:44.852Z,11.45
2023-04-16T06:35:12.927Z,11.56
2023-04-16T06:37:41.533Z,11.65
2023-04-16T06:40:10.174Z,11.71
2023-04-16T06:42:38.371Z,11.77
2023-04-16T06:45:07.594Z,11.87
2023-04-16T06:47:35.818Z,11.95
2023-04-16T06:50:04.037Z,12.05
2023-04-16T06:52:32.145Z,12.13
2023-04-16T06:55:00.260Z,12.24
2023-04-16T06:57:28.183Z,12.33
2023-04-16T06:59:56.364Z,12.41
2023-04-16T07:02:24.556Z,12.49
2023-04-16T07:04:52.726Z,12.60
2023-04-16T07:07:20.788Z,12.68
2023-04-16T07:09:48.842Z,12.75
2023-04-16T07:12:16.960Z,12.80
2023-04-16T07:14:44.893Z,12.85
2023-04-16T07:17:12.812Z,12.92
2023-04-16T07:19:41.073Z,12.97
2023-04-16T07:22:08.949Z,13.03
2023-04-16T07:24:36.898Z,13.10
2023-04-16T07:27:04.866Z,13.15
2023-04-16T07:29:33.489Z,13.18
2023-04-16T07:32:01.712Z,13.25
2023-04-16T07:34:29.803Z,13.31
2023-04-16T07:36:57.565Z,13.37
2023-04-16T07:39:25.451Z,13.39
2023-04-16T07:41:53.289Z,13.43
2023-04-16T07:44:21.313Z,13.53
2023-04-16T07:46:49.172Z,13.63
2023-04-16T07:49:17.361Z,13.77
2023-04-16T07:51:45.480Z,13.95
2023-04-16T07:54:13.417Z,14.09
2023-04-16T07:56:41.397Z,14.23
2023-04-16T07:59:22.112Z,14.42
2023-04-16T08:01:53.968Z,14.62
2023-04-16T08:04:25.661Z,14.79
2023-04-16T08:06:54.491Z,14.87
2023-04-16T08:09:24.343Z,14.93
2023-04-16T08:11:52.299Z,15.03
2023-04-16T08:14:20.389Z,15.12
2023-04-16T08:16:50.046Z,15.18
2023-04-16T08:19:18.202Z,15.27
2023-04-16T08:21:47.350Z,15.39
2023-04-16T08:24:15.693Z,15.49
2023-04-16T08:26:43.790Z,15.56
2023-04-16T08:29:11.962Z,15.63
2023-04-16T08:31:41.421Z,15.66
2023-04-16T08:34:11.564Z,15.71
2023-04-16T08:36:41.037Z,15.77
2023-04-16T08:39:09.611Z,15.82
2023-04-16T08:41:42.420Z,15.86
2023-04-16T08:44:19.885Z,15.96
2023-04-16T08:46:48.747Z,16.08
2023-04-16T08:49:18.338Z,16.21
2023-04-16T08:51:59.151Z,16.32
2023-04-16T08:54:32.675Z,16.44
2023-04-16T08:57:05.859Z,16.53
2023-04-16T08:59:34.731Z,16.64
2023-04-16T09:02:03.070Z,16.72
2023-04-16T09:04:32.701Z,16.78
2023-04-16T09:07:05.395Z,16.80
2023-04-16T09:09:34.699Z,16.88
2023-04-16T09:12:03.374Z,16.93
2023-04-16T09:14:31.306Z,16.98
2023-04-16T09:17:02.520Z,17.00
2023-04-16T09:19:30.743Z,17.00
2023-04-16T09:21:58.825Z,16.99
2023-04-16T09:24:27.133Z,17.02
2023-04-16T09:26:55.212Z,17.08
2023-04-16T09:29:43.475Z,17.12
2023-04-16T09:32:12.367Z,17.14
2023-04-16T09:35:00.676Z,17.18
2023-04-16T09:37:30.518Z,17.25
2023-04-16T09:40:00.852Z,17.33
2023-04-16T09:42:31.777Z,17.40
2023-04-16T09:45:03.327Z,17.44
2023-04-16T09:47:42.111Z,17.47
2023-04-16T09:50:18.749Z,17.53
2023-04-16T09:52:53.946Z,17.58
2023-04-16T09:55:27.798Z,17.64
2023-04-16T09:58:01.278Z,17.69
2023-04-16T10:00:31.513Z,17.74
2023-04-16T10:03:07.347Z,17.80
2023-04-16T10:05:37.066Z,17.89
2023-04-16T10:08:12.255Z,17.95
2023-04-16T10:10:43.617Z,18.03
2023-04-16T10:13:12.987Z,18.10
2023-04-16T10:15:42.093Z,18.12
2023-04-16T10:18:11.563Z,18.18
2023-04-16T10:20:39.759Z,18.25
2023-04-16T10:23:07.967Z,18.33
2023-04-16T10:25:36.610Z,18.40
2023-04-16T10:28:05.566Z,18.47
2023-04-16T10:30:33.963Z,18.54
2023-04-16T10:33:07.868Z,18.61
2023-04-16T10:35:40.555Z,18.65
2023-04-16T10:38:28.550Z,18.69
2023-04-16T10:41:02.223Z,18.74
2023-04-16T10:43:31.870Z,18.79
2023-04-16T10:46:32.985Z,18.81
2023-04-16T10:49:03.253Z,18.82
2023-04-16T10:51:34.632Z,18.90
2023-04-16T10:54:28.510Z,19.00
2023-04-16T10:57:04.446Z,19.06
2023-04-16T10:59:35.684Z,19.09
2023-04-16T11:02:16.607Z,19.13
2023-04-16T11:04:46.468Z,19.15
2023-04-16T11:07:32.192Z,19.18
2023-04-16T11:10:04.406Z,19.26
2023-04-16T11:12:37.920Z,19.28
2023-04-16T11:15:10.750Z,19.31
2023-04-16T11:17:43.064Z,19.34
2023-04-16T11:20:19.018Z,19.30
2023-04-16T11:22:53.735Z,19.22
2023-04-16T11:25:27.337Z,19.18
2023-04-16T11:27:57.069Z,19.18
2023-04-16T11:30:34.137Z,19.19
2023-04-16T11:33:03.838Z,19.24
2023-04-16T11:35:32.493Z,19.30
2023-04-16T11:38:00.690Z,19.34
2023-04-16T11:40:31.854Z,19.36
2023-04-16T11:43:12.632Z,19.35
2023-04-16T11:45:56.256Z,19.38
2023-04-16T11:48:24.528Z,19.45
2023-04-16T11:50:59.293Z,19.55
2023-04-16T11:53:27.344Z,19.51
2023-04-16T11:55:55.419Z,19.43
2023-04-16T11:58:23.659Z,19.42
2023-04-16T12:00:56.969Z,19.43
2023-04-16T12:03:46.186Z,19.44
2023-04-16T12:06:15.526Z,19.49
2023-04-16T12:08:43.498Z,19.54
2023-04-16T12:11:11.483Z,19.58
2023-04-16T12:13:40.314Z,19.62
2023-04-16T12:16:21.209Z,19.61
2023-04-16T12:19:01.720Z,19.58
2023-04-16T12:22:00.863Z,19.56
2023-04-16T12:24:32.353Z,19.59
2023-04-16T12:27:03.192Z,19.60
2023-04-16T12:29:31.996Z,19.60
2023-04-16T12:32:00.080Z,19.62
2023-04-16T12:34:48.525Z,19.62
2023-04-16T12:37:16.679Z,19.60
2023-04-16T12:39:45.477Z,19.58
2023-04-16T12:42:14.937Z,19.55
2023-04-16T12:44:42.939Z,19.56
2023-04-16T12:47:11.424Z,19.59
2023-04-16T12:49:39.463Z,19.60
2023-04-16T12:52:07.717Z,19.58
2023-04-16T12:54:35.805Z,19.55
2023-04-16T12:57:03.921Z,19.48
2023-04-16T12:59:31.997Z,19.41
2023-04-16T13:02:01.645Z,19.38
2023-04-16T13:04:30.095Z,19.34
2023-04-16T13:06:58.214Z,19.32
2023-04-16T13:09:27.104Z,19.27
2023-04-16T13:11:55.114Z,19.24
2023-04-16T13:14:23.110Z,19.21
2023-04-16T13:16:50.971Z,19.18
2023-04-16T13:19:19.362Z,19.17
2023-04-16T13:21:47.319Z,19.18
2023-04-16T13:24:15.568Z,19.19
2023-04-16T13:26:43.603Z,19.19
2023-04-16T13:29:11.908Z,19.19
2023-04-16T13:31:40.367Z,19.18
2023-04-16T13:34:08.269Z,19.15
2023-04-16T13:36:36.154Z,19.10
2023-04-16T13:39:05.427Z,19.03
2023-04-16T13:41:33.395Z,18.99
2023-04-16T13:44:01.311Z,18.99
2023-04-16T13:46:29.596Z,18.99
2023-04-16T13:48:57.818Z,18.96
2023-04-16T13:51:27.214Z,18.96
2023-04-16T13:53:57.982Z,18.95
2023-04-16T13:56:26.061Z,18.90
2023-04-16T13:58:54.068Z,18.85
2023-04-16T14:01:22.084Z,18.82
2023-04-16T14:03:50.196Z,18.84
2023-04-16T14:06:18.407Z,18.83
2023-04-16T14:08:46.423Z,18.81
2023-04-16T14:11:14.409Z,18.79
2023-04-16T14:13:42.352Z,18.73
2023-04-16T14:16:10.793Z,18.68
2023-04-16T14:18:42.485Z,18.68
2023-04-16T14:21:10.752Z,18.65
2023-04-16T14:23:38.715Z,18.60
2023-04-16T14:26:06.694Z,18.55
2023-04-16T14:28:35.865Z,18.51
2023-04-16T14:31:03.962Z,18.47
2023-04-16T14:33:32.382Z,18.44
2023-04-16T14:36:02.720Z,18.40
2023-04-16T14:38:32.097Z,18.36
2023-04-16T14:41:00.649Z,18.34
2023-04-16T14:43:28.916Z,18.32
2023-04-16T14:45:59.061Z,18.31
2023-04-16T14:48:27.038Z,18.28
2023-04-16T14:50:55.037Z,18.24
2023-04-16T14:53:24.527Z,18.22
2023-04-16T14:55:53.452Z,18.20
2023-04-16T14:58:22.012Z,18.19
2023-04-16T15:00:49.966Z,18.17
2023-04-16T15:03:18.188Z,18.17
2023-04-16T15:05:50.875Z,18.13
2023-04-16T15:08:18.772Z,18.10
2023-04-16T15:10:46.736Z,18.07
2023-04-16T15:13:14.779Z,18.05
2023-04-16T15:15:43.977Z,18.02
2023-04-16T15:18:12.151Z,18.00
2023-04-16T15:20:40.159Z,17.95
2023-04-16T15:23:08.241Z,17.91
2023-04-16T15:25:36.245Z,17.89
2023-04-16T15:28:04.527Z,17.87
2023-04-16T15:30:32.486Z,17.84
2023-04-16T15:33:00.784Z,17.81
2023-04-16T15:35:28.850Z,17.79
2023-04-16T15:37:56.919Z,17.76
2023-04-16T15:40:25.240Z,17.73
2023-04-16T15:42:56.023Z,17.70
2023-04-16T15:45:24.127Z,17.69
2023-04-16T15:47:52.296Z,17.67
2023-04-16T15:50:20.987Z,17.64
2023-04-16T15:52:49.214Z,17.63
2023-04-16T15:55:18.270Z,17.61
2023-04-16T15:57:46.526Z,17.59
2023-04-16T16:00:17.214Z,17.57
2023-04-16T16:02:47.161Z,17.56
2023-04-16T16:05:17.004Z,17.54
2023-04-16T16:07:45.597Z,17.53
2023-04-16T16:10:13.708Z,17.53
2023-04-16T16:12:41.926Z,17.50
2023-04-16T16:15:11.314Z,17.51
2023-04-16T16:17:40.696Z,17.48
2023-04-16T16:20:10.849Z,17.47
2023-04-16T16:22:40.257Z,17.46
2023-04-16T16:25:10.247Z,17.45
2023-04-16T16:27:38.254Z,17.42
2023-04-16T16:30:07.743Z,17.40
2023-04-16T16:32:36.041Z,17.37
2023-04-16T16:35:04.441Z,17.36
2023-04-16T16:37:32.481Z,17.33
2023-04-16T16:40:00.770Z,17.30
2023-04-16T16:42:28.969Z,17.29
2023-04-16T16:44:57.629Z,17.27
2023-04-16T16:47:26.257Z,17.27
2023-04-16T16:49:54.837Z,17.34
2023-04-16T16:52:24.314Z,17.36
2023-04-16T16:54:56.913Z,17.39
2023-04-16T16:57:25.023Z,17.39
2023-04-16T16:59:54.484Z,17.35
2023-04-16T17:02:23.246Z,17.34
2023-04-16T17:04:52.802Z,17.31
2023-04-16T17:07:20.977Z,17.23
2023-04-16T17:09:48.889Z,17.15
2023-04-16T17:12:16.802Z,17.10
2023-04-16T17:14:44.796Z,17.06
2023-04-16T17:17:12.853Z,17.02
2023-04-16T17:19:40.821Z,16.98
2023-04-16T17:22:11.856Z,16.96
2023-04-16T17:24:39.827Z,16.95
2023-04-16T17:27:07.694Z,16.90
2023-04-16T17:29:35.968Z,16.87
2023-04-16T17:32:04.286Z,16.82
2023-04-16T17:34:32.196Z,16.78
2023-04-16T17:37:00.432Z,16.74
2023-04-16T17:39:28.383Z,16.70
2023-04-16T17:41:58.729Z,16.65
2023-04-16T17:44:28.034Z,16.60
2023-04-16T17:46:56.102Z,16.55
2023-04-16T17:49:24.133Z,16.49
2023-04-16T17:51:54.069Z,16.44
2023-04-16T17:54:21.997Z,16.41
2023-04-16T17:56:49.912Z,16.37
2023-04-16T17:59:17.843Z,16.34
2023-04-16T18:01:46.020Z,16.32
2023-04-16T18:04:14.328Z,16.30
2023-04-16T18:06:42.544Z,16.28
2023-04-16T18:09:10.666Z,16.25
2023-04-16T18:11:38.622Z,16.23
2023-04-16T18:14:06.540Z,16.21
2023-04-16T18:16:34.578Z,16.19
2023-04-16T18:19:02.517Z,16.15
2023-04-16T18:21:31.645Z,16.10
2023-04-16T18:24:01.066Z,16.04
2023-04-16T18:26:30.072Z,16.01
2023-04-16T18:29:06.815Z,16.00
2023-04-16T18:31:34.733Z,15.98
2023-04-16T18:34:03.046Z,15.99
2023-04-16T18:36:31.608Z,15.98
2023-04-16T18:39:02.123Z,15.98
2023-04-16T18:41:31.394Z,15.97
2023-04-16T18:43:59.442Z,15.97
2023-04-16T18:46:27.635Z,15.94
2023-04-16T18:48:56.035Z,15.93
2023-04-16T18:51:25.161Z,15.92
2023-04-16T18:53:53.212Z,15.92
2023-04-16T18:56:21.792Z,15.91
2023-04-16T18:58:49.696Z,15.90
2023-04-16T19:01:18.409Z,15.89
2023-04-16T19:03:46.519Z,15.88
2023-04-16T19:06:14.748Z,15.87
2023-04-16T19:08:42.613Z,15.90
2023-04-16T19:11:10.718Z,15.91
2023-04-16T19:13:39.441Z,15.91
2023-04-16T19:16:11.642Z,15.89
2023-04-16T19:18:39.943Z,15.86
2023-04-16T19:21:10.133Z,15.84
2023-04-16T19:23:38.167Z,15.82
2023-04-16T19:26:06.380Z,15.82
2023-04-16T19:28:34.351Z,15.82
2023-04-16T19:31:02.257Z,15.81
2023-04-16T19:33:31.439Z,15.78
2023-04-16T19:36:00.518Z,15.75
2023-04-16T19:38:29.177Z,15.70
2023-04-16T19:40:57.195Z,15.66
2023-04-16T19:43:25.444Z,15.59
2023-04-16T19:45:54.315Z,15.53
2023-04-16T19:48:22.468Z,15.45
2023-04-16T19:50:52.807Z,15.40
2023-04-16T19:53:21.631Z,15.34
2023-04-16T19:55:50.065Z,15.29
2023-04-16T19:58:21.324Z,15.23
2023-04-16T20:00:49.396Z,15.20
2023-04-16T20:03:18.188Z,15.15
2023-04-16T20:05:49.656Z,15.13
2023-04-16T20:08:17.730Z,15.10
2023-04-16T20:10:46.015Z,15.07
2023-04-16T20:13:16.097Z,15.04
2023-04-16T20:15:54.091Z,15.02
2023-04-16T20:18:25.982Z,14.99
2023-04-16T20:20:54.888Z,14.96
2023-04-16T20:23:22.822Z,14.93
2023-04-16T20:25:52.336Z,14.95
2023-04-16T20:28:21.622Z,14.97
2023-04-16T20:30:52.113Z,15.00
2023-04-16T20:33:20.417Z,15.03
2023-04-16T20:35:49.238Z,15.06
2023-04-16T20:38:18.407Z,15.07
2023-04-16T20:40:47.275Z,15.10
2023-04-16T20:43:18.759Z,15.11
2023-04-16T20:45:46.983Z,15.10
2023-04-16T20:48:15.049Z,15.11
2023-04-16T20:50:43.159Z,15.12
2023-04-16T20:53:11.173Z,15.11
2023-04-16T20:55:39.206Z,15.10
2023-04-16T20:58:07.204Z,15.09
2023-04-16T21:00:35.320Z,15.10
2023-04-16T21:03:06.618Z,15.08
2023-04-16T21:05:34.722Z,15.10
2023-04-16T21:08:03.168Z,15.10
2023-04-16T21:10:32.582Z,15.12
2023-04-16T21:13:00.672Z,15.13
2023-04-16T21:15:28.665Z,15.14
2023-04-16T21:18:00.181Z,15.12
2023-04-16T21:20:30.641Z,15.11
2023-04-16T21:22:59.240Z,15.12
2023-04-16T21:25:27.354Z,15.12
2023-04-16T21:27:55.653Z,15.15
2023-04-16T21:30:23.716Z,15.16
2023-04-16T21:32:51.785Z,15.16
2023-04-16T21:35:19.900Z,15.14
2023-04-16T21:37:47.993Z,15.11
2023-04-16T21:40:16.241Z,15.08
2023-04-16T21:42:44.624Z,15.08
2023-04-16T21:45:14.628Z,15.03
2023-04-16T21:47:42.776Z,15.00
2023-04-16T21:50:11.963Z,14.99
2023-04-16T21:52:40.585Z,14.98
2023-04-16T21:55:09.953Z,14.93
2023-04-16T21:57:40.761Z,14.90
2023-04-16T22:00:13.761Z,14.88
2023-04-16T22:02:43.252Z,14.85
2023-04-16T22:05:11.762Z,14.84
2023-04-16T22:07:39.970Z,14.79
2023-04-16T22:10:09.149Z,14.74
2023-04-16T22:12:40.102Z,14.70
2023-04-16T22:15:09.217Z,14.65
2023-04-16T22:17:37.326Z,14.59
2023-04-16T22:20:09.419Z,14.54
2023-04-16T22:22:37.690Z,14.48
2023-04-16T22:25:06.366Z,14.44
2023-04-16T22:27:34.572Z,14.43
2023-04-16T22:30:03.980Z,14.39
2023-04-16T22:32:33.218Z,14.34
2023-04-16T22:35:02.144Z,14.33
2023-04-16T22:37:30.130Z,14.27
2023-04-16T22:39:58.235Z,14.23
2023-04-16T22:42:26.362Z,14.19
2023-04-16T22:44:54.352Z,14.14
2023-04-16T22:47:22.698Z,14.13
2023-04-16T22:49:50.945Z,14.10
2023-04-16T22:52:18.869Z,14.06
2023-04-16T22:54:46.875Z,14.04
2023-04-16T22:57:14.945Z,14.01
2023-04-16T22:59:42.893Z,13.99
2023-04-16T23:02:10.860Z,13.96
2023-04-16T23:04:38.786Z,13.95
2023-04-16T23:07:06.930Z,13.92
2023-04-16T23:09:34.969Z,13.91
2023-04-16T23:12:03.046Z,13.89
2023-04-16T23:14:31.622Z,13.87
2023-04-16T23:16:59.876Z,13.84
2023-04-16T23:19:27.974Z,13.79
2023-04-16T23:21:56.149Z,13.76
2023-04-16T23:24:24.327Z,13.76
2023-04-16T23:26:52.814Z,13.76
2023-04-16T23:29:21.006Z,13.72
2023-04-16T23:31:49.048Z,13.68
2023-04-16T23:34:17.006Z,13.64
2023-04-16T23:36:45.137Z,13.59
2023-04-16T23:39:13.276Z,13.54
2023-04-16T23:41:41.530Z,13.52
2023-04-16T23:44:09.616Z,13.49
2023-04-16T23:46:39.006Z,13.43
2023-04-16T23:49:07.067Z,13.43
2023-04-16T23:51:35.063Z,13.41
2023-04-16T23:54:03.116Z,13.36
2023-04-16T23:56:31.447Z,13.31
2023-04-16T23:58:59.467Z,13.29
